createdAt,value
2019-02-03T00:01:38.299Z,162.77
2019-02-03T00:04:08.421Z,166.13
2019-02-03T00:06:38.280Z,175.33
2019-02-03T00:09:15.971Z,158.47
2019-02-03T00:11:46.124Z,156.60
2019-02-03T00:14:16.356Z,155.77
2019-02-03T00:16:46.737Z,160.63
2019-02-03T00:19:16.866Z,151.40
2019-02-03T00:21:46.881Z,158.20
2019-02-03T00:24:16.761Z,163.53
2019-02-03T00:27:05.885Z,152.90
2019-02-03T00:29:47.895Z,175.67
2019-02-03T00:32:36.984Z,154.07
2019-02-03T00:35:26.135Z,163.43
2019-02-03T00:38:23.140Z,166.83
2019-02-03T00:41:06.587Z,172.37
2019-02-03T00:43:55.662Z,159.20
2019-02-03T00:46:44.788Z,156.47
2019-02-03T00:49:33.907Z,172.00
2019-02-03T00:52:23.027Z,169.67
2019-02-03T00:55:13.987Z,166.53
2019-02-03T00:58:03.106Z,173.00
2019-02-03T01:00:52.201Z,145.80
2019-02-03T01:03:41.331Z,152.87
2019-02-03T01:06:30.456Z,153.90
2019-02-03T01:09:19.872Z,152.60
2019-02-03T01:12:09.229Z,152.60
2019-02-03T01:14:58.360Z,144.70
2019-02-03T01:17:47.552Z,144.53
2019-02-03T01:20:36.793Z,152.63
2019-02-03T01:23:27.904Z,140.23
2019-02-03T01:26:17.256Z,152.23
2019-02-03T01:29:00.553Z,150.17
2019-02-03T01:31:49.663Z,155.83
2019-02-03T01:34:38.764Z,151.43
2019-02-03T01:37:38.894Z,155.17
2019-02-03T01:40:19.352Z,155.80
2019-02-03T01:43:08.547Z,158.50
2019-02-03T01:45:50.173Z,146.47
2019-02-03T01:48:39.597Z,145.87
2019-02-03T01:51:28.729Z,149.17
2019-02-03T01:54:18.122Z,149.03
2019-02-03T01:57:07.251Z,142.70
2019-02-03T01:59:56.927Z,154.47
2019-02-03T02:02:46.040Z,161.70
2019-02-03T02:05:36.865Z,149.93
2019-02-03T02:08:26.243Z,153.07
2019-02-03T02:11:17.335Z,142.83
2019-02-03T02:14:06.500Z,152.53
2019-02-03T02:16:55.903Z,148.60
2019-02-03T02:19:45.048Z,146.97
2019-02-03T02:22:34.179Z,146.27
2019-02-03T02:25:16.645Z,143.70
2019-02-03T02:28:06.435Z,141.47
2019-02-03T02:30:49.041Z,153.57
2019-02-03T02:33:38.382Z,149.33
2019-02-03T02:36:29.238Z,152.87
2019-02-03T02:39:18.323Z,157.83
2019-02-03T02:42:09.168Z,165.57
2019-02-03T02:44:58.262Z,157.47
2019-02-03T02:47:47.480Z,155.90
2019-02-03T02:50:39.332Z,160.17
2019-02-03T02:53:28.671Z,163.30
2019-02-03T02:56:17.776Z,166.37
2019-02-03T02:59:06.912Z,163.57
2019-02-03T03:01:56.402Z,147.20
2019-02-03T03:07:39.785Z,155.87
2019-02-03T03:10:28.891Z,155.83
2019-02-03T03:13:18.280Z,152.43
2019-02-03T03:16:07.468Z,136.43
2019-02-03T03:18:56.832Z,139.63
2019-02-03T03:21:39.393Z,144.60
2019-02-03T03:24:28.827Z,138.97
2019-02-03T03:27:18.173Z,136.17
2019-02-03T03:30:00.585Z,132.43
2019-02-03T03:33:08.692Z,132.37
2019-02-03T03:35:58.040Z,135.60
2019-02-03T03:38:47.191Z,131.57
2019-02-03T03:41:36.287Z,123.20
2019-02-03T03:44:25.975Z,130.10
2019-02-03T03:47:36.065Z,128.23
2019-02-03T03:50:25.513Z,138.80
2019-02-03T03:53:14.849Z,152.53
2019-02-03T03:56:04.241Z,159.83
2019-02-03T03:58:53.389Z,135.20
2019-02-03T04:01:42.498Z,142.80
2019-02-03T04:04:31.615Z,153.07
2019-02-03T04:07:21.020Z,147.00
2019-02-03T04:10:11.353Z,156.77
2019-02-03T04:13:01.112Z,155.83
2019-02-03T04:15:50.782Z,161.17
2019-02-03T04:18:39.897Z,157.10
2019-02-03T04:21:30.711Z,162.43
2019-02-03T04:24:19.829Z,160.00
2019-02-03T04:27:10.756Z,163.87
2019-02-03T04:30:00.356Z,159.53
2019-02-03T04:32:43.774Z,161.77
2019-02-03T04:35:33.158Z,152.33
2019-02-03T04:38:23.071Z,161.50
2019-02-03T04:41:12.503Z,163.70
2019-02-03T04:44:01.613Z,168.30
2019-02-03T04:46:50.711Z,158.53
2019-02-03T04:49:40.139Z,160.83
2019-02-03T04:52:29.489Z,175.53
2019-02-03T04:58:34.044Z,151.63
2019-02-03T05:01:25.185Z,150.53
2019-02-03T05:04:14.302Z,140.27
2019-02-03T05:07:03.409Z,154.73
2019-02-03T05:09:52.505Z,144.57
2019-02-03T05:12:41.631Z,138.07
2019-02-03T05:15:30.737Z,148.30
2019-02-03T05:18:19.821Z,130.97
2019-02-03T05:21:08.954Z,123.13
2019-02-03T05:23:58.314Z,123.73
2019-02-03T05:26:47.397Z,132.77
2019-02-03T05:29:36.858Z,127.07
2019-02-03T05:32:26.527Z,136.30
2019-02-03T05:35:16.174Z,134.67
2019-02-03T05:38:05.267Z,138.90
2019-02-03T05:40:54.927Z,135.57
2019-02-03T05:44:03.362Z,124.13
2019-02-03T05:46:52.518Z,135.20
2019-02-03T05:49:42.212Z,107.73
2019-02-03T05:52:31.327Z,134.37
2019-02-03T05:55:20.741Z,120.00
2019-02-03T05:58:09.850Z,133.07
2019-02-03T06:00:58.946Z,128.40
2019-02-03T06:03:48.049Z,125.57
2019-02-03T06:06:37.163Z,124.53
2019-02-03T06:09:36.197Z,115.27
2019-02-03T06:12:17.110Z,130.00
2019-02-03T06:15:07.066Z,125.53
2019-02-03T06:17:58.479Z,139.77
2019-02-03T06:20:47.948Z,128.63
2019-02-03T06:23:38.780Z,125.77
2019-02-03T06:26:08.760Z,120.77
2019-02-03T06:28:38.751Z,123.93
2019-02-03T06:31:16.247Z,122.77
2019-02-03T06:33:50.954Z,115.30
2019-02-03T06:36:21.611Z,118.00
2019-02-03T06:38:53.345Z,121.70
2019-02-03T06:41:23.493Z,113.83
2019-02-03T06:43:53.624Z,109.00
2019-02-03T06:46:41.481Z,106.33
2019-02-03T06:49:27.240Z,130.33
2019-02-03T06:51:57.224Z,115.40
2019-02-03T06:54:27.105Z,123.07
2019-02-03T06:56:57.392Z,104.10
2019-02-03T06:59:27.361Z,121.53
2019-02-03T07:01:57.341Z,117.73
2019-02-03T07:04:27.304Z,110.83
2019-02-03T07:06:57.276Z,106.67
2019-02-03T07:09:27.256Z,115.83
2019-02-03T07:11:57.225Z,110.43
2019-02-03T07:14:27.219Z,116.20
2019-02-03T07:16:57.569Z,115.57
2019-02-03T07:19:27.469Z,122.93
2019-02-03T07:21:57.361Z,107.43
2019-02-03T07:24:27.271Z,100.57
2019-02-03T07:26:57.414Z,120.43
2019-02-03T07:29:27.578Z,124.93
2019-02-03T07:31:57.476Z,130.63
2019-02-03T07:34:27.469Z,111.83
2019-02-03T07:36:57.698Z,122.73
2019-02-03T07:39:27.670Z,128.00
2019-02-03T07:41:57.565Z,118.40
2019-02-03T07:44:27.492Z,121.07
2019-02-03T07:46:58.535Z,119.27
2019-02-03T07:49:28.880Z,128.63
2019-02-03T07:51:59.111Z,120.40
2019-02-03T07:54:29.012Z,120.33
2019-02-03T07:56:58.861Z,120.43
2019-02-03T07:59:28.753Z,114.43
2019-02-03T08:01:59.300Z,107.27
2019-02-03T08:04:29.529Z,114.13
2019-02-03T08:06:59.719Z,111.57
2019-02-03T08:09:30.011Z,101.33
2019-02-03T08:11:59.993Z,114.50
2019-02-03T08:14:30.193Z,101.73
2019-02-03T08:17:00.458Z,108.27
2019-02-03T08:19:30.311Z,103.00
2019-02-03T08:22:00.193Z,101.90
2019-02-03T08:24:30.328Z,109.27
2019-02-03T08:27:00.235Z,105.60
2019-02-03T08:29:30.383Z,103.60
2019-02-03T08:32:00.486Z,114.30
2019-02-03T08:34:30.424Z,109.43
2019-02-03T08:37:00.899Z,110.83
2019-02-03T08:39:30.901Z,105.53
2019-02-03T08:42:00.752Z,105.67
2019-02-03T08:44:30.674Z,101.03
2019-02-03T08:47:00.648Z,112.20
2019-02-03T08:49:30.981Z,98.57
2019-02-03T08:52:00.908Z,96.77
2019-02-03T08:54:30.899Z,102.93
2019-02-03T08:57:01.655Z,103.97
2019-02-03T08:59:31.644Z,105.63
2019-02-03T09:02:01.762Z,104.57
2019-02-03T09:04:31.756Z,113.90
2019-02-03T09:07:02.120Z,110.43
2019-02-03T09:09:32.083Z,112.07
2019-02-03T09:12:02.129Z,94.90
2019-02-03T09:14:32.022Z,106.40
2019-02-03T09:17:01.940Z,115.77
2019-02-03T09:19:31.944Z,104.40
2019-02-03T09:22:02.228Z,104.10
2019-02-03T09:24:32.289Z,105.90
2019-02-03T09:27:02.164Z,115.03
2019-02-03T09:29:32.561Z,106.63
2019-02-03T09:32:02.474Z,109.43
2019-02-03T09:34:32.387Z,104.80
2019-02-03T09:37:02.496Z,113.30
2019-02-03T09:39:32.326Z,114.33
2019-02-03T09:42:02.730Z,102.37
2019-02-03T09:44:32.721Z,109.53
2019-02-03T09:47:02.880Z,109.03
2019-02-03T09:49:33.109Z,98.53
2019-02-03T09:52:02.964Z,111.70
2019-02-03T09:54:32.832Z,96.90
2019-02-03T09:57:02.977Z,105.63
2019-02-03T09:59:32.913Z,100.30
2019-02-03T10:02:03.087Z,96.13
2019-02-03T10:04:33.070Z,85.17
2019-02-03T10:07:02.935Z,99.40
2019-02-03T10:09:33.152Z,106.67
2019-02-03T10:12:03.144Z,98.97
2019-02-03T10:14:33.038Z,90.33
2019-02-03T10:17:02.926Z,100.37
2019-02-03T10:19:33.294Z,96.53
2019-02-03T10:22:05.805Z,102.67
2019-02-03T10:24:42.038Z,95.73
2019-02-03T10:27:07.571Z,98.03
2019-02-03T10:29:37.993Z,99.80
2019-02-03T10:32:07.951Z,102.50
2019-02-03T10:34:38.295Z,92.63
2019-02-03T10:37:08.263Z,98.57
2019-02-03T10:39:38.458Z,100.83
2019-02-03T10:42:08.401Z,112.63
2019-02-03T10:44:38.505Z,110.00
2019-02-03T10:47:08.506Z,112.90
2019-02-03T10:49:38.450Z,113.03
2019-02-03T10:52:08.308Z,112.40
2019-02-03T10:54:38.268Z,105.70
2019-02-03T10:57:08.211Z,103.97
2019-02-03T10:59:38.087Z,116.67
2019-02-03T11:02:08.157Z,106.90
2019-02-03T11:04:38.263Z,108.53
2019-02-03T11:07:08.594Z,108.47
2019-02-03T11:09:38.502Z,121.87
2019-02-03T11:12:08.776Z,108.63
2019-02-03T11:14:38.897Z,105.53
2019-02-03T11:17:09.119Z,114.93
2019-02-03T11:19:39.392Z,122.77
2019-02-03T11:22:09.312Z,113.60
2019-02-03T11:24:39.235Z,119.10
2019-02-03T11:27:09.167Z,109.73
2019-02-03T11:29:39.071Z,103.33
2019-02-03T11:32:09.527Z,112.93
2019-02-03T11:34:39.494Z,103.30
2019-02-03T11:37:09.602Z,101.47
2019-02-03T11:39:39.517Z,98.17
2019-02-03T11:42:09.654Z,95.30
2019-02-03T11:44:39.853Z,114.63
2019-02-03T11:47:09.920Z,91.73
2019-02-03T11:49:39.787Z,77.57
2019-02-03T11:52:09.806Z,98.17
2019-02-03T11:54:39.655Z,81.40
2019-02-03T11:57:09.611Z,83.23
2019-02-03T11:59:39.867Z,93.47
2019-02-03T12:02:09.803Z,75.67
2019-02-03T12:04:39.938Z,78.37
2019-02-03T12:07:09.964Z,71.17
2019-02-03T12:09:39.949Z,74.73
2019-02-03T12:12:10.950Z,69.33
2019-02-03T12:14:40.816Z,70.20
2019-02-03T12:17:11.134Z,69.20
2019-02-03T12:19:41.000Z,62.53
2019-02-03T12:22:10.988Z,65.43
2019-02-03T12:24:41.287Z,63.03
2019-02-03T12:27:11.239Z,55.83
2019-02-03T12:29:41.092Z,58.70
2019-02-03T12:32:10.988Z,51.10
2019-02-03T12:34:40.796Z,55.77
2019-02-03T12:37:10.942Z,57.83
2019-02-03T12:39:40.895Z,62.77
2019-02-03T12:42:13.236Z,57.20
2019-02-03T12:44:42.357Z,55.67
2019-02-03T12:47:13.322Z,56.47
2019-02-03T12:49:43.572Z,62.73
2019-02-03T12:52:13.525Z,67.57
2019-02-03T12:54:43.423Z,60.00
2019-02-03T12:57:13.344Z,63.70
2019-02-03T12:59:43.216Z,59.57
2019-02-03T13:02:13.141Z,64.00
2019-02-03T13:04:43.272Z,59.60
2019-02-03T13:07:13.203Z,58.73
2019-02-03T13:09:43.039Z,66.23
2019-02-03T13:12:24.400Z,66.03
2019-02-03T13:14:44.913Z,64.73
2019-02-03T13:17:15.325Z,69.67
2019-02-03T13:19:45.532Z,65.90
2019-02-03T13:22:15.710Z,59.30
2019-02-03T13:24:45.624Z,63.87
2019-02-03T13:27:15.484Z,59.67
2019-02-03T13:29:45.726Z,68.37
2019-02-03T13:32:16.283Z,57.93
2019-02-03T13:34:46.145Z,59.00
2019-02-03T13:37:16.137Z,53.90
2019-02-03T13:39:46.336Z,60.17
2019-02-03T13:42:16.781Z,59.23
2019-02-03T13:44:46.615Z,50.00
2019-02-03T13:47:16.522Z,51.50
2019-02-03T13:49:46.830Z,51.37
2019-02-03T13:52:16.810Z,48.30
2019-02-03T13:54:47.293Z,55.33
2019-02-03T13:57:18.016Z,43.00
2019-02-03T13:59:48.155Z,52.90
2019-02-03T14:02:18.076Z,52.57
2019-02-03T14:04:48.665Z,52.47
2019-02-03T14:07:18.833Z,51.03
2019-02-03T14:09:49.051Z,46.93
2019-02-03T14:12:18.923Z,50.13
2019-02-03T14:14:49.101Z,49.70
2019-02-03T14:17:19.100Z,48.13
2019-02-03T14:19:49.225Z,54.40
2019-02-03T14:22:19.212Z,41.57
2019-02-03T14:24:49.544Z,51.00
2019-02-03T14:27:19.705Z,45.07
2019-02-03T14:29:50.620Z,42.17
2019-02-03T14:32:20.913Z,43.33
2019-02-03T14:34:51.274Z,43.90
2019-02-03T14:37:21.259Z,44.57
2019-02-03T14:39:51.299Z,43.30
2019-02-03T14:42:21.583Z,40.17
2019-02-03T14:44:51.505Z,42.73
2019-02-03T14:47:22.051Z,42.13
2019-02-03T14:49:51.940Z,42.13
2019-02-03T14:52:21.954Z,41.43
2019-02-03T14:54:51.840Z,38.23
2019-02-03T14:57:22.045Z,42.30
2019-02-03T14:59:52.067Z,38.00
2019-02-03T15:02:22.148Z,40.73
2019-02-03T15:04:52.186Z,39.23
2019-02-03T15:07:22.069Z,41.57
2019-02-03T15:09:52.040Z,37.43
2019-02-03T15:12:21.988Z,43.37
2019-02-03T15:14:51.851Z,40.77
2019-02-03T15:17:21.717Z,38.00
2019-02-03T15:19:51.989Z,33.53
2019-02-03T15:22:24.302Z,38.50
2019-02-03T15:24:54.136Z,39.50
2019-02-03T15:27:24.081Z,36.60
2019-02-03T15:29:54.287Z,35.73
2019-02-03T15:32:24.148Z,32.13
2019-02-03T15:34:54.059Z,34.83
2019-02-03T15:37:24.604Z,35.47
2019-02-03T15:39:55.448Z,37.43
2019-02-03T15:42:25.352Z,34.67
2019-02-03T15:44:55.510Z,37.50
2019-02-03T15:47:25.389Z,33.03
2019-02-03T15:49:56.360Z,32.43
2019-02-03T15:52:27.151Z,33.20
2019-02-03T15:54:57.103Z,32.33
2019-02-03T15:57:27.041Z,33.47
2019-02-03T15:59:57.006Z,37.90
2019-02-03T16:02:27.754Z,31.77
2019-02-03T16:04:57.689Z,34.87
2019-02-03T16:07:27.683Z,35.00
2019-02-03T16:09:57.829Z,30.57
2019-02-03T16:12:28.057Z,30.97
2019-02-03T16:14:58.684Z,30.67
2019-02-03T16:17:28.553Z,28.47
2019-02-03T16:19:58.596Z,31.90
2019-02-03T16:22:28.761Z,30.70
2019-02-03T16:24:59.281Z,30.13
2019-02-03T16:27:29.211Z,31.57
2019-02-03T16:29:59.065Z,34.73
2019-02-03T16:32:28.966Z,33.53
2019-02-03T16:34:59.020Z,32.67
2019-02-03T16:37:28.918Z,36.63
2019-02-03T16:39:59.156Z,30.40
2019-02-03T16:42:29.169Z,29.90
2019-02-03T16:44:59.037Z,32.50
2019-02-03T16:47:29.001Z,35.17
2019-02-03T16:49:59.146Z,34.30
2019-02-03T16:52:29.205Z,31.27
2019-02-03T16:54:59.372Z,29.70
2019-02-03T16:57:29.304Z,33.07
2019-02-03T16:59:59.264Z,28.87
2019-02-03T17:02:35.414Z,36.70
2019-02-03T17:05:09.070Z,30.10
2019-02-03T17:07:39.687Z,36.70
2019-02-03T17:10:12.024Z,27.10
2019-02-03T17:12:42.930Z,36.63
2019-02-03T17:15:33.711Z,27.40
2019-02-03T17:18:04.670Z,24.93
2019-02-03T17:20:34.638Z,27.33
2019-02-03T17:23:04.744Z,25.60
2019-02-03T17:25:38.849Z,29.67
2019-02-03T17:28:09.057Z,28.83
2019-02-03T17:30:39.440Z,20.97
2019-02-03T17:33:09.600Z,25.77
2019-02-03T17:35:53.272Z,22.40
2019-02-03T17:38:11.659Z,24.70
2019-02-03T17:40:41.850Z,23.43
2019-02-03T17:43:12.063Z,23.60
2019-02-03T17:45:41.923Z,24.60
2019-02-03T17:48:11.972Z,24.80
2019-02-03T17:50:42.136Z,30.80
2019-02-03T17:53:12.348Z,22.97
2019-02-03T17:55:42.637Z,25.17
2019-02-03T17:58:12.808Z,22.20
2019-02-03T18:00:47.754Z,24.83
2019-02-03T18:03:17.997Z,23.07
2019-02-03T18:05:48.010Z,19.97
2019-02-03T18:08:18.328Z,20.00
2019-02-03T18:10:48.355Z,20.70
2019-02-03T18:13:18.275Z,18.73
2019-02-03T18:15:48.196Z,18.50
2019-02-03T18:18:18.243Z,17.03
2019-02-03T18:20:48.450Z,13.10
2019-02-03T18:23:18.687Z,13.77
2019-02-03T18:25:48.768Z,14.00
2019-02-03T18:28:19.723Z,15.70
2019-02-03T18:30:50.400Z,13.33
2019-02-03T18:33:20.352Z,10.57
2019-02-03T18:35:50.540Z,10.80
2019-02-03T18:38:20.828Z,12.90
2019-02-03T18:40:51.744Z,12.97
2019-02-03T18:43:23.022Z,11.10
2019-02-03T18:45:53.409Z,12.90
2019-02-03T18:48:24.225Z,9.77
2019-02-03T18:50:54.165Z,11.10
2019-02-03T18:53:24.458Z,8.80
2019-02-03T18:55:54.336Z,9.00
2019-02-03T18:58:24.268Z,10.70
2019-02-03T19:00:54.400Z,10.60
2019-02-03T19:03:24.339Z,12.50
2019-02-03T19:05:54.326Z,10.67
2019-02-03T19:08:24.245Z,10.73
2019-02-03T19:10:54.194Z,14.60
2019-02-03T19:13:24.616Z,9.97
2019-02-03T19:15:54.843Z,7.57
2019-02-03T19:18:25.014Z,10.83
2019-02-03T19:20:54.889Z,15.30
2019-02-03T19:23:24.904Z,16.50
2019-02-03T19:25:54.854Z,11.00
2019-02-03T19:28:24.853Z,11.73
2019-02-03T19:30:55.125Z,9.47
2019-02-03T19:33:25.072Z,8.67
2019-02-03T19:35:54.978Z,9.53
2019-02-03T19:38:24.895Z,12.43
2019-02-03T19:40:54.956Z,9.60
2019-02-03T19:43:25.199Z,10.43
2019-02-03T19:45:55.179Z,11.50
2019-02-03T19:48:25.099Z,11.97
2019-02-03T19:50:55.022Z,10.47
2019-02-03T19:53:25.441Z,13.87
2019-02-03T19:55:55.412Z,9.57
2019-02-03T19:58:25.348Z,14.30
2019-02-03T20:00:55.245Z,8.90
2019-02-03T20:03:25.117Z,12.63
2019-02-03T20:05:55.349Z,9.70
2019-02-03T20:08:25.583Z,14.27
2019-02-03T20:10:55.554Z,14.70
2019-02-03T20:13:25.542Z,12.43
2019-02-03T20:15:55.434Z,13.77
2019-02-03T20:18:25.570Z,16.77
2019-02-03T20:20:55.738Z,11.63
2019-02-03T20:23:26.790Z,15.70
2019-02-03T20:25:56.648Z,15.80
2019-02-03T20:28:26.830Z,13.63
2019-02-03T20:30:56.711Z,10.60
2019-02-03T20:33:26.988Z,12.60
2019-02-03T20:35:57.410Z,9.70
2019-02-03T20:38:27.442Z,12.10
2019-02-03T20:40:57.361Z,13.23
2019-02-03T20:43:27.335Z,13.07
2019-02-03T20:45:57.181Z,13.27
2019-02-03T20:48:27.344Z,12.27
2019-02-03T20:50:57.532Z,13.70
2019-02-03T20:53:27.612Z,12.77
2019-02-03T20:55:57.451Z,11.87
2019-02-03T20:58:27.331Z,13.10
2019-02-03T21:00:57.523Z,16.47
2019-02-03T21:03:27.524Z,10.77
2019-02-03T21:05:57.427Z,12.13
2019-02-03T21:08:27.334Z,10.83
2019-02-03T21:10:57.219Z,12.03
2019-02-03T21:13:27.487Z,15.53
2019-02-03T21:15:57.343Z,16.53
2019-02-03T21:18:27.713Z,14.90
2019-02-03T21:20:57.546Z,18.60
2019-02-03T21:23:27.782Z,14.53
2019-02-03T21:25:57.682Z,16.03
2019-02-03T21:28:28.197Z,15.57
2019-02-03T21:30:58.092Z,17.63
2019-02-03T21:33:27.991Z,15.77
2019-02-03T21:35:57.958Z,24.67
2019-02-03T21:38:27.828Z,16.27
2019-02-03T21:40:57.743Z,18.00
2019-02-03T21:43:27.663Z,17.90
2019-02-03T21:46:04.126Z,16.30
2019-02-03T21:48:33.740Z,17.80
2019-02-03T21:51:03.698Z,18.93
2019-02-03T21:53:34.149Z,14.80
2019-02-03T21:56:04.045Z,16.00
2019-02-03T21:58:33.923Z,16.80
2019-02-03T22:01:03.871Z,19.30
2019-02-03T22:03:33.794Z,19.23
2019-02-03T22:06:04.496Z,16.13
2019-02-03T22:08:34.583Z,19.03
2019-02-03T22:11:06.999Z,15.63
2019-02-03T22:13:36.855Z,16.10
2019-02-03T22:16:06.872Z,16.10
2019-02-03T22:18:36.853Z,19.10
2019-02-03T22:21:06.738Z,19.53
2019-02-03T22:23:36.708Z,18.70
2019-02-03T22:26:06.883Z,22.20
2019-02-03T22:28:37.046Z,19.50
2019-02-03T22:31:06.946Z,22.53
2019-02-03T22:33:37.202Z,17.50
2019-02-03T22:36:07.615Z,17.50
2019-02-03T22:38:37.562Z,16.80
2019-02-03T22:41:07.751Z,18.70
2019-02-03T22:43:37.970Z,17.17
2019-02-03T22:46:08.327Z,22.13
2019-02-03T22:48:38.216Z,21.13
2019-02-03T22:51:08.117Z,16.70
2019-02-03T22:53:37.980Z,23.00
2019-02-03T22:56:07.964Z,18.63
2019-02-03T22:58:37.843Z,18.00
2019-02-03T23:01:22.647Z,18.77
2019-02-03T23:03:59.597Z,19.30
2019-02-03T23:06:31.005Z,23.07
2019-02-03T23:09:06.257Z,16.60
2019-02-03T23:11:36.783Z,22.50
2019-02-03T23:14:06.771Z,16.80
2019-02-03T23:16:37.050Z,16.70
2019-02-03T23:19:07.108Z,19.20
2019-02-03T23:21:37.498Z,17.30
2019-02-03T23:24:07.522Z,14.03
2019-02-03T23:26:37.416Z,16.13
2019-02-03T23:29:07.389Z,12.43
2019-02-03T23:31:37.391Z,14.63
2019-02-03T23:34:07.853Z,13.80
2019-02-03T23:36:38.483Z,19.73
2019-02-03T23:39:12.490Z,17.73
2019-02-03T23:41:43.342Z,18.17
2019-02-03T23:44:13.358Z,19.00
2019-02-03T23:46:43.634Z,10.50
2019-02-03T23:49:13.764Z,12.77
2019-02-03T23:51:43.865Z,14.43
2019-02-03T23:54:14.333Z,16.83
2019-02-03T23:56:44.197Z,14.53
2019-02-03T23:59:14.161Z,11.93
